createdAt,value
2019-01-02T00:00:30.420Z,1.10
2019-01-02T00:02:57.192Z,1.40
2019-01-02T00:05:23.932Z,1.20
2019-01-02T00:07:50.721Z,1.40
2019-01-02T00:10:17.476Z,1.13
2019-01-02T00:12:44.237Z,1.30
2019-01-02T00:15:10.996Z,1.20
2019-01-02T00:17:37.772Z,1.27
2019-01-02T00:20:06.023Z,1.13
2019-01-02T00:22:32.896Z,2.10
2019-01-02T00:24:59.628Z,1.10
2019-01-02T00:27:26.704Z,1.00
2019-01-02T00:29:53.472Z,1.00
2019-01-02T00:32:20.236Z,1.30
2019-01-02T00:34:46.977Z,1.50
2019-01-02T00:37:13.748Z,1.20
2019-01-02T00:39:40.502Z,0.87
2019-01-02T00:42:07.249Z,1.20
2019-01-02T00:44:34.023Z,1.50
2019-01-02T00:47:00.761Z,2.40
2019-01-02T00:49:27.551Z,1.30
2019-01-02T00:51:54.309Z,1.10
2019-01-02T00:54:21.076Z,1.70
2019-01-02T00:56:47.862Z,1.47
2019-01-02T00:59:14.632Z,2.20
2019-01-02T01:01:41.368Z,1.80
2019-01-02T01:04:08.146Z,1.27
2019-01-02T01:06:34.917Z,1.30
2019-01-02T01:09:01.680Z,1.37
2019-01-02T01:11:28.433Z,1.50
2019-01-02T01:13:55.220Z,1.60
2019-01-02T01:16:22.109Z,1.40
2019-01-02T01:18:48.896Z,1.53
2019-01-02T01:21:15.680Z,1.40
2019-01-02T01:23:42.436Z,1.53
2019-01-02T01:26:09.192Z,1.60
2019-01-02T01:28:35.956Z,1.67
2019-01-02T01:31:02.712Z,1.93
2019-01-02T01:33:29.469Z,1.20
2019-01-02T01:35:56.232Z,1.77
2019-01-02T01:38:23.011Z,1.60
2019-01-02T01:40:49.773Z,1.27
2019-01-02T01:43:16.532Z,2.07
2019-01-02T01:45:43.296Z,1.60
2019-01-02T01:48:10.051Z,1.37
2019-01-02T01:50:36.793Z,1.87
2019-01-02T01:53:03.558Z,1.93
2019-01-02T01:55:30.296Z,1.90
2019-01-02T01:57:57.076Z,1.30
2019-01-02T02:00:23.815Z,1.73
2019-01-02T02:02:50.655Z,1.57
2019-01-02T02:05:17.400Z,1.43
2019-01-02T02:07:44.168Z,2.23
2019-01-02T02:10:12.554Z,1.60
2019-01-02T02:12:39.320Z,1.87
2019-01-02T02:15:07.176Z,1.93
2019-01-02T02:17:33.926Z,2.03
2019-01-02T02:20:00.700Z,1.57
2019-01-02T02:22:27.460Z,1.60
2019-01-02T02:24:54.233Z,1.37
2019-01-02T02:27:20.988Z,1.50
2019-01-02T02:29:47.759Z,1.93
2019-01-02T02:32:14.495Z,2.10
2019-01-02T02:34:41.261Z,2.33
2019-01-02T02:37:08.112Z,1.83
2019-01-02T02:39:34.897Z,1.97
2019-01-02T02:42:01.628Z,1.67
2019-01-02T02:44:28.393Z,1.50
2019-01-02T02:46:55.139Z,2.03
2019-01-02T02:49:21.894Z,2.33
2019-01-02T02:51:48.646Z,1.53
2019-01-02T02:54:15.468Z,2.10
2019-01-02T02:56:42.217Z,2.83
2019-01-02T02:59:08.973Z,2.60
2019-01-02T03:01:35.739Z,2.17
2019-01-02T03:04:02.526Z,2.30
2019-01-02T03:06:29.264Z,2.53
2019-01-02T03:08:56.032Z,2.20
2019-01-02T03:11:22.780Z,2.83
2019-01-02T03:13:49.543Z,2.10
2019-01-02T03:16:16.294Z,2.47
2019-01-02T03:18:43.068Z,2.10
2019-01-02T03:21:09.808Z,1.93
2019-01-02T03:23:36.557Z,2.27
2019-01-02T03:26:03.297Z,2.03
2019-01-02T03:28:30.048Z,2.23
2019-01-02T03:30:56.789Z,1.53
2019-01-02T03:33:23.556Z,3.17
2019-01-02T03:35:50.305Z,2.30
2019-01-02T03:38:17.051Z,2.40
2019-01-02T03:40:43.817Z,2.70
2019-01-02T03:43:10.581Z,2.60
2019-01-02T03:45:37.344Z,2.13
2019-01-02T03:48:04.092Z,2.30
2019-01-02T03:50:30.871Z,2.83
2019-01-02T03:52:57.644Z,1.77
2019-01-02T03:55:24.409Z,1.87
2019-01-02T03:57:51.137Z,2.03
2019-01-02T04:00:19.152Z,1.83
2019-01-02T04:02:45.912Z,1.93
2019-01-02T04:05:14.180Z,3.03
2019-01-02T04:07:43.248Z,2.57
2019-01-02T04:10:11.449Z,4.43
2019-01-02T04:12:38.209Z,2.27
2019-01-02T04:15:05.118Z,1.60
2019-01-02T04:17:31.839Z,2.07
2019-01-02T04:19:58.597Z,2.17
2019-01-02T04:22:25.352Z,2.27
2019-01-02T04:24:52.109Z,2.17
2019-01-02T04:27:18.881Z,2.50
2019-01-02T04:29:45.648Z,3.23
2019-01-02T04:32:12.389Z,2.33
2019-01-02T04:34:39.141Z,1.90
2019-01-02T04:37:05.887Z,2.40
2019-01-02T04:39:32.652Z,2.87
2019-01-02T04:41:59.393Z,2.40
2019-01-02T04:44:26.157Z,3.70
2019-01-02T04:46:52.896Z,2.80
2019-01-02T04:49:19.640Z,2.63
2019-01-02T04:51:46.410Z,3.10
2019-01-02T04:54:13.132Z,3.27
2019-01-02T04:56:39.885Z,2.73
2019-01-02T04:59:06.622Z,2.60
2019-01-02T05:01:33.384Z,2.87
2019-01-02T05:04:00.137Z,2.80
2019-01-02T05:06:26.901Z,2.10
2019-01-02T05:08:53.648Z,1.97
2019-01-02T05:11:20.613Z,2.70
2019-01-02T05:13:47.360Z,3.20
2019-01-02T05:16:14.108Z,2.43
2019-01-02T05:18:40.841Z,2.93
2019-01-02T05:21:07.611Z,3.10
2019-01-02T05:23:34.348Z,2.97
2019-01-02T05:26:01.104Z,3.23
2019-01-02T05:28:27.861Z,2.80
2019-01-02T05:30:54.632Z,2.47
2019-01-02T05:33:21.382Z,3.27
2019-01-02T05:35:48.146Z,2.83
2019-01-02T05:38:14.909Z,2.23
2019-01-02T05:40:41.663Z,2.37
2019-01-02T05:43:08.535Z,2.53
2019-01-02T05:45:35.300Z,2.47
2019-01-02T05:48:02.056Z,2.60
2019-01-02T05:50:28.813Z,3.10
2019-01-02T05:52:55.569Z,2.40
2019-01-02T05:55:22.331Z,2.73
2019-01-02T05:57:49.067Z,2.43
2019-01-02T06:00:15.812Z,3.20
2019-01-02T06:02:42.612Z,2.43
2019-01-02T06:05:09.406Z,2.53
2019-01-02T06:07:36.173Z,2.77
2019-01-02T06:10:03.085Z,2.87
2019-01-02T06:12:29.840Z,2.57
2019-01-02T06:14:56.573Z,3.30
2019-01-02T06:17:23.324Z,2.10
2019-01-02T06:19:50.056Z,2.63
2019-01-02T06:22:16.967Z,2.63
2019-01-02T06:24:43.548Z,1.90
2019-01-02T06:27:10.346Z,2.63
2019-01-02T06:29:37.160Z,2.83
2019-01-02T06:32:04.070Z,3.07
2019-01-02T06:34:30.789Z,2.60
2019-01-02T06:36:57.543Z,3.50
2019-01-02T06:39:24.344Z,2.33
2019-01-02T06:41:51.082Z,2.37
2019-01-02T06:44:17.835Z,2.17
2019-01-02T06:46:44.600Z,2.07
2019-01-02T06:49:11.349Z,2.20
2019-01-02T06:51:38.101Z,2.43
2019-01-02T06:54:04.853Z,2.23
2019-01-02T06:56:31.612Z,2.33
2019-01-02T06:58:58.356Z,2.30
2019-01-02T07:01:25.495Z,2.90
2019-01-02T07:03:52.221Z,2.20
2019-01-02T07:06:19.023Z,2.37
2019-01-02T07:08:45.744Z,3.20
2019-01-02T07:11:12.488Z,2.10
2019-01-02T07:13:39.260Z,3.03
2019-01-02T07:16:06.048Z,2.30
2019-01-02T07:18:32.825Z,3.60
2019-01-02T07:20:59.579Z,3.20
2019-01-02T07:23:26.331Z,3.27
2019-01-02T07:25:53.076Z,3.23
2019-01-02T07:28:19.830Z,2.87
2019-01-02T07:30:46.561Z,3.30
2019-01-02T07:33:13.319Z,3.33
2019-01-02T07:36:07.164Z,2.50
2019-01-02T07:38:44.549Z,4.00
2019-01-02T07:41:24.657Z,3.57
2019-01-02T07:44:08.193Z,3.63
2019-01-02T07:47:01.685Z,3.90
2019-01-02T07:50:09.342Z,2.70
2019-01-02T07:52:47.652Z,4.40
2019-01-02T07:55:45.008Z,4.03
2019-01-02T07:58:25.268Z,4.20
2019-01-02T08:01:25.380Z,3.80
2019-01-02T08:04:07.288Z,3.50
2019-01-02T08:06:54.214Z,3.57
2019-01-02T08:09:36.911Z,2.70
2019-01-02T08:12:21.773Z,3.17
2019-01-02T08:15:07.690Z,2.80
2019-01-02T08:17:44.860Z,3.13
2019-01-02T08:20:45.477Z,2.93
2019-01-02T08:23:34.760Z,1.73
2019-01-02T08:26:33.035Z,3.60
2019-01-02T08:29:27.144Z,2.90
2019-01-02T08:32:14.784Z,3.17
2019-01-02T08:34:59.925Z,2.50
2019-01-02T08:37:36.506Z,2.73
2019-01-02T08:40:14.865Z,2.17
2019-01-02T08:42:57.405Z,2.60
2019-01-02T08:45:58.577Z,3.10
2019-01-02T08:48:43.829Z,3.00
2019-01-02T08:51:29.241Z,2.30
2019-01-02T08:54:30.226Z,2.83
2019-01-02T08:57:09.813Z,3.45
2019-01-02T09:00:16.613Z,2.63
2019-01-02T09:03:03.073Z,3.57
2019-01-02T09:06:00.312Z,3.90
2019-01-02T09:08:58.520Z,3.07
2019-01-02T09:11:36.910Z,3.20
2019-01-02T09:14:29.059Z,2.80
2019-01-02T09:17:26.500Z,2.40
2019-01-02T09:20:14.045Z,2.37
2019-01-02T09:23:14.964Z,3.13
2019-01-02T09:25:57.724Z,2.77
2019-01-02T09:28:37.339Z,3.17
2019-01-02T09:31:39.100Z,2.50
2019-01-02T09:34:31.006Z,4.27
2019-01-02T09:37:11.796Z,4.13
2019-01-02T09:40:11.460Z,3.40
2019-01-02T09:43:17.400Z,3.07
2019-01-02T09:45:55.072Z,2.93
2019-01-02T09:48:56.668Z,2.80
2019-01-02T09:51:48.760Z,3.60
2019-01-02T09:54:34.497Z,3.92
2019-01-02T09:57:30.772Z,2.73
2019-01-02T10:00:18.099Z,3.20
2019-01-02T10:03:06.105Z,3.00
2019-01-02T10:06:05.469Z,3.10
2019-01-02T10:08:43.256Z,3.37
2019-01-02T10:11:30.236Z,2.67
2019-01-02T10:14:11.793Z,4.40
2019-01-02T10:17:08.117Z,3.20
2019-01-02T10:19:52.940Z,2.67
2019-01-02T10:22:29.163Z,2.50
2019-01-02T10:25:25.076Z,3.13
2019-01-02T10:28:11.448Z,3.13
2019-01-02T10:30:59.963Z,2.60
2019-01-02T10:33:53.549Z,3.30
2019-01-02T10:36:47.624Z,2.73
2019-01-02T10:39:35.052Z,2.30
2019-01-02T10:42:27.180Z,3.50
2019-01-02T10:45:30.947Z,2.70
2019-01-02T10:48:21.188Z,3.50
2019-01-02T10:51:02.338Z,3.57
2019-01-02T10:53:45.624Z,2.53
2019-01-02T10:56:38.808Z,2.63
2019-01-02T10:59:20.847Z,3.22
2019-01-02T11:02:15.888Z,3.40
2019-01-02T11:05:15.768Z,3.00
2019-01-02T11:07:53.840Z,3.43
2019-01-02T11:10:53.072Z,3.20
2019-01-02T11:13:59.069Z,3.27
2019-01-02T11:16:51.167Z,2.80
2019-01-02T11:19:44.632Z,2.80
2019-01-02T11:22:29.932Z,2.80
2019-01-02T11:25:30.353Z,3.53
2019-01-02T11:28:19.413Z,3.63
2019-01-02T11:31:31.370Z,2.43
2019-01-02T11:34:23.464Z,2.90
2019-01-02T11:37:08.272Z,3.30
2019-01-02T11:39:46.627Z,2.80
2019-01-02T11:42:21.927Z,3.53
2019-01-02T11:45:01.292Z,2.23
2019-01-02T11:47:28.037Z,3.53
2019-01-02T11:49:54.833Z,2.37
2019-01-02T11:52:21.589Z,3.50
2019-01-02T11:54:48.355Z,2.57
2019-01-02T11:57:15.100Z,2.80
2019-01-02T11:59:41.880Z,2.80
2019-01-02T12:02:08.632Z,3.00
2019-01-02T12:04:35.412Z,3.00
2019-01-02T12:07:02.160Z,3.27
2019-01-02T12:09:28.921Z,3.07
2019-01-02T12:11:55.670Z,3.60
2019-01-02T12:14:22.425Z,3.97
2019-01-02T12:16:49.198Z,3.07
2019-01-02T12:19:15.993Z,3.72
2019-01-02T12:21:42.769Z,3.20
2019-01-02T12:24:09.528Z,3.77
2019-01-02T12:26:36.284Z,3.50
2019-01-02T12:29:03.049Z,2.97
2019-01-02T12:31:29.897Z,6.10
2019-01-02T12:33:56.712Z,2.43
2019-01-02T12:36:23.488Z,3.43
2019-01-02T12:38:50.284Z,3.30
2019-01-02T12:41:17.053Z,3.03
2019-01-02T12:43:43.805Z,3.50
2019-01-02T12:46:10.593Z,2.87
2019-01-02T12:48:37.380Z,2.63
2019-01-02T12:51:04.137Z,2.90
2019-01-02T12:53:30.889Z,3.50
2019-01-02T12:55:57.664Z,3.17
2019-01-02T12:58:24.437Z,3.20
2019-01-02T13:00:56.476Z,3.93
2019-01-02T13:03:57.129Z,2.57
2019-01-02T13:06:55.646Z,3.27
2019-01-02T13:09:31.693Z,3.30
2019-01-02T13:12:41.632Z,2.60
2019-01-02T13:15:45.936Z,3.10
2019-01-02T13:18:44.450Z,2.43
2019-01-02T13:21:28.120Z,3.73
2019-01-02T13:24:03.984Z,3.00
2019-01-02T13:26:38.112Z,2.43
2019-01-02T13:29:16.647Z,3.10
2019-01-02T13:32:14.832Z,2.80
2019-01-02T13:34:54.329Z,2.70
2019-01-02T13:37:36.653Z,3.20
2019-01-02T13:40:24.185Z,3.00
2019-01-02T13:43:02.144Z,3.53
2019-01-02T13:45:37.996Z,2.67
2019-01-02T13:48:20.744Z,3.90
2019-01-02T13:51:11.217Z,2.97
2019-01-02T13:53:37.996Z,2.60
2019-01-02T13:56:06.867Z,3.33
2019-01-02T13:58:33.616Z,3.40
2019-01-02T14:01:00.381Z,2.73
2019-01-02T14:03:27.162Z,3.70
2019-01-02T14:05:53.959Z,3.37
2019-01-02T14:08:20.708Z,2.37
2019-01-02T14:10:47.482Z,2.90
2019-01-02T14:13:14.233Z,2.00
2019-01-02T14:15:41.016Z,2.43
2019-01-02T14:18:07.760Z,1.90
2019-01-02T14:20:34.517Z,2.43
2019-01-02T14:23:01.273Z,1.73
2019-01-02T14:25:28.024Z,1.87
2019-01-02T14:27:54.800Z,2.70
2019-01-02T14:30:21.541Z,1.60
2019-01-02T14:32:48.312Z,1.63
2019-01-02T14:35:15.061Z,2.20
2019-01-02T14:37:41.901Z,1.80
2019-01-02T14:40:08.660Z,2.03
2019-01-02T14:42:35.420Z,2.17
2019-01-02T14:45:02.163Z,2.47
2019-01-02T14:47:28.941Z,1.80
2019-01-02T14:49:55.721Z,2.33
2019-01-02T14:52:22.500Z,1.40
2019-01-02T14:54:49.232Z,1.70
2019-01-02T14:57:15.996Z,2.03
2019-01-02T14:59:42.849Z,1.90
2019-01-02T15:02:09.625Z,2.10
2019-01-02T15:04:36.376Z,1.87
2019-01-02T15:07:03.143Z,2.20
2019-01-02T15:09:29.929Z,1.93
2019-01-02T15:11:56.692Z,2.23
2019-01-02T15:14:23.480Z,1.43
2019-01-02T15:16:50.245Z,2.20
2019-01-02T15:19:17.047Z,2.70
2019-01-02T15:21:43.795Z,1.87
2019-01-02T15:24:10.532Z,2.50
2019-01-02T15:26:37.301Z,1.87
2019-01-02T15:29:04.413Z,2.10
2019-01-02T15:31:31.220Z,2.83
2019-01-02T15:33:58.020Z,2.13
2019-01-02T15:36:24.781Z,3.30
2019-01-02T15:38:51.520Z,2.60
2019-01-02T15:41:18.275Z,2.33
2019-01-02T15:43:45.047Z,2.60
2019-01-02T15:46:11.812Z,2.70
2019-01-02T15:48:38.544Z,2.40
2019-01-02T15:51:05.342Z,2.77
2019-01-02T15:53:32.085Z,2.20
2019-01-02T15:55:58.848Z,2.40
2019-01-02T15:58:25.576Z,2.80
2019-01-02T16:00:52.672Z,2.93
2019-01-02T16:03:19.416Z,3.60
2019-01-02T16:05:46.170Z,3.30
2019-01-02T16:08:12.922Z,2.70
2019-01-02T16:10:39.656Z,2.87
2019-01-02T16:13:06.416Z,2.40
2019-01-02T16:15:33.181Z,3.10
2019-01-02T16:17:59.952Z,3.30
2019-01-02T16:20:26.705Z,3.20
2019-01-02T16:22:53.473Z,3.53
2019-01-02T16:25:20.208Z,2.90
2019-01-02T16:27:47.693Z,3.10
2019-01-02T16:30:13.832Z,3.27
2019-01-02T16:32:40.588Z,3.43
2019-01-02T16:35:07.435Z,3.40
2019-01-02T16:37:34.177Z,3.03
2019-01-02T16:40:00.949Z,2.70
2019-01-02T16:42:27.708Z,2.70
2019-01-02T16:44:54.500Z,2.23
2019-01-02T16:47:21.273Z,3.00
2019-01-02T16:49:48.008Z,2.57
2019-01-02T16:52:14.821Z,3.00
2019-01-02T16:54:41.592Z,2.87
2019-01-02T16:57:08.345Z,3.27
2019-01-02T16:59:35.100Z,2.90
2019-01-02T17:02:01.913Z,3.07
2019-01-02T17:04:28.669Z,2.50
2019-01-02T17:06:55.513Z,2.90
2019-01-02T17:09:22.248Z,3.40
2019-01-02T17:11:49.020Z,2.83
2019-01-02T17:14:15.760Z,2.87
2019-01-02T17:16:42.504Z,3.07
2019-01-02T17:19:09.308Z,3.67
2019-01-02T17:21:36.072Z,2.63
2019-01-02T17:24:02.836Z,3.53
2019-01-02T17:26:29.570Z,3.10
2019-01-02T17:28:56.348Z,3.97
2019-01-02T17:31:23.104Z,3.47
2019-01-02T17:33:49.860Z,2.97
2019-01-02T17:36:16.613Z,3.93
2019-01-02T17:38:43.365Z,3.17
2019-01-02T17:41:10.149Z,3.10
2019-01-02T17:43:37.050Z,3.20
2019-01-02T17:46:03.838Z,2.60
2019-01-02T17:48:30.613Z,2.50
2019-01-02T17:50:57.364Z,2.40
2019-01-02T17:53:24.120Z,2.20
2019-01-02T17:55:50.917Z,2.40
2019-01-02T17:58:17.699Z,2.80
2019-01-02T18:00:44.482Z,3.20
2019-01-02T18:03:11.284Z,3.40
2019-01-02T18:05:38.077Z,3.13
2019-01-02T18:08:04.844Z,3.50
2019-01-02T18:10:31.627Z,3.40
2019-01-02T18:12:59.917Z,2.83
2019-01-02T18:15:26.661Z,2.77
2019-01-02T18:17:53.516Z,3.20
2019-01-02T18:20:20.283Z,4.00
2019-01-02T18:22:47.032Z,3.07
2019-01-02T18:25:13.805Z,3.40
2019-01-02T18:27:40.564Z,4.23
2019-01-02T18:30:09.645Z,4.17
2019-01-02T18:32:36.404Z,3.63
2019-01-02T18:35:03.420Z,3.00
2019-01-02T18:37:30.185Z,3.20
2019-01-02T18:39:56.964Z,3.90
2019-01-02T18:42:23.720Z,3.40
2019-01-02T18:44:50.506Z,3.20
2019-01-02T18:47:17.252Z,3.50
2019-01-02T18:49:44.020Z,4.40
2019-01-02T18:52:10.769Z,3.17
2019-01-02T18:54:37.565Z,4.20
2019-01-02T18:57:04.329Z,3.58
2019-01-02T18:59:31.186Z,3.57
2019-01-02T19:01:57.962Z,3.30
2019-01-02T19:04:24.756Z,3.50
2019-01-02T19:06:51.540Z,2.83
2019-01-02T19:09:18.328Z,3.50
2019-01-02T19:11:45.125Z,2.83
2019-01-02T19:14:12.971Z,3.03
2019-01-02T19:16:38.668Z,3.72
2019-01-02T19:19:05.465Z,2.70
2019-01-02T19:21:32.273Z,3.20
2019-01-02T19:23:59.126Z,2.63
2019-01-02T19:26:25.900Z,2.87
2019-01-02T19:28:52.698Z,2.80
2019-01-02T19:31:19.553Z,3.20
2019-01-02T19:33:46.309Z,2.60
2019-01-02T19:36:13.074Z,3.20
2019-01-02T19:38:39.829Z,2.90
2019-01-02T19:41:06.652Z,2.70
2019-01-02T19:43:33.445Z,3.12
2019-01-02T19:46:00.208Z,3.37
2019-01-02T19:48:26.970Z,3.20
2019-01-02T19:50:53.741Z,3.27
2019-01-02T19:53:20.492Z,4.10
2019-01-02T19:55:47.330Z,3.43
2019-01-02T19:58:14.076Z,3.15
2019-01-02T20:00:40.865Z,4.05
2019-01-02T20:03:07.616Z,4.10
2019-01-02T20:05:34.393Z,3.60
2019-01-02T20:08:01.198Z,3.57
2019-01-02T20:10:28.012Z,3.90
2019-01-02T20:12:54.773Z,3.80
2019-01-02T20:15:21.543Z,3.30
2019-01-02T20:17:48.284Z,3.50
2019-01-02T20:20:15.060Z,3.00
2019-01-02T20:22:41.824Z,3.60
2019-01-02T20:25:08.708Z,4.00
2019-01-02T20:27:35.467Z,4.00
2019-01-02T20:30:02.233Z,3.40
2019-01-02T20:32:29.008Z,3.80
2019-01-02T20:34:55.790Z,2.90
2019-01-02T20:37:22.568Z,2.83
2019-01-02T20:39:49.334Z,3.17
2019-01-02T20:42:16.127Z,3.50
2019-01-02T20:44:42.911Z,2.62
2019-01-02T20:47:09.688Z,2.77
2019-01-02T20:49:36.469Z,3.40
2019-01-02T20:52:03.224Z,3.33
2019-01-02T20:54:30.030Z,2.77
2019-01-02T20:56:56.743Z,2.50
2019-01-02T20:59:23.555Z,2.70
2019-01-02T21:01:50.329Z,2.58
2019-01-02T21:04:17.194Z,2.90
2019-01-02T21:06:43.948Z,2.40
2019-01-02T21:09:10.745Z,2.27
2019-01-02T21:11:37.493Z,2.83
2019-01-02T21:14:04.252Z,2.20
2019-01-02T21:16:31.016Z,1.97
2019-01-02T21:18:57.803Z,2.50
2019-01-02T21:21:24.560Z,2.50
2019-01-02T21:23:51.332Z,2.30
2019-01-02T21:26:18.080Z,2.62
2019-01-02T21:28:44.849Z,2.80
2019-01-02T21:31:11.605Z,2.27
2019-01-02T21:33:38.625Z,2.60
2019-01-02T21:36:05.212Z,2.60
2019-01-02T21:38:31.986Z,3.00
2019-01-02T21:40:58.737Z,2.90
2019-01-02T21:43:25.516Z,2.47
2019-01-02T21:45:52.263Z,2.60
2019-01-02T21:48:19.117Z,2.27
2019-01-02T21:50:45.889Z,2.70
2019-01-02T21:53:12.656Z,1.85
2019-01-02T21:55:39.446Z,1.83
2019-01-02T21:58:06.172Z,2.27
2019-01-02T22:00:32.977Z,2.33
2019-01-02T22:02:59.741Z,2.30
2019-01-02T22:05:26.513Z,2.55
2019-01-02T22:07:53.305Z,2.60
2019-01-02T22:10:20.133Z,2.40
2019-01-02T22:12:46.952Z,3.40
2019-01-02T22:15:13.749Z,2.33
2019-01-02T22:17:40.624Z,1.40
2019-01-02T22:20:07.393Z,2.05
2019-01-02T22:22:34.164Z,3.17
2019-01-02T22:25:00.928Z,2.00
2019-01-02T22:27:27.676Z,2.30
2019-01-02T22:29:54.480Z,2.10
2019-01-02T22:32:21.230Z,1.90
2019-01-02T22:34:48.106Z,2.10
2019-01-02T22:37:14.889Z,2.22
2019-01-02T22:39:41.685Z,2.00
2019-01-02T22:42:08.444Z,1.70
2019-01-02T22:44:35.229Z,1.90
2019-01-02T22:47:02.013Z,1.90
2019-01-02T22:49:28.834Z,1.90
2019-01-02T22:51:55.604Z,1.93
2019-01-02T22:54:22.404Z,2.10
2019-01-02T22:56:49.173Z,2.10
2019-01-02T22:59:15.942Z,2.10
2019-01-02T23:02:02.320Z,2.25
2019-01-02T23:04:43.552Z,1.87
2019-01-02T23:07:24.939Z,2.00
2019-01-02T23:09:57.405Z,2.00
2019-01-02T23:12:45.749Z,2.20
2019-01-02T23:15:32.158Z,1.95
2019-01-02T23:18:15.546Z,2.05
2019-01-02T23:20:48.013Z,1.93
2019-01-02T23:23:35.304Z,2.50
2019-01-02T23:26:25.472Z,2.58
2019-01-02T23:29:11.889Z,2.00
2019-01-02T23:32:02.757Z,2.37
2019-01-02T23:34:49.136Z,2.13
2019-01-02T23:37:30.238Z,2.00
2019-01-02T23:40:12.734Z,1.93
2019-01-02T23:43:00.994Z,1.75
2019-01-02T23:45:33.484Z,2.00
2019-01-02T23:48:17.892Z,1.90
2019-01-02T23:51:08.316Z,2.57
2019-01-02T23:53:54.696Z,1.98
2019-01-02T23:56:39.584Z,1.92
2019-01-02T23:59:25.954Z,1.70
